Time,TemperatureF,DewpointF,PressureIn,WindDirection,WindDirectionDegrees,WindSpeedMPH,WindSpeedGustMPH,Humidity,HourlyPrecipIn,Conditions,Clouds,dailyrainin,SoftwareType,DateUTC
2013-06-15 00:08:00,56.4,55.0,30.00,NW,318,0.0,0.0,95,0.00,,,0.00,weatherlink.com 1.10,2013-06-15 04:08:00,
2013-06-15 00:23:00,56.2,55.0,30.00,NW,318,0.0,0.0,95,0.00,,,0.00,weatherlink.com 1.10,2013-06-15 04:23:00,
2013-06-15 00:38:00,55.9,55.0,30.01,NW,318,0.0,0.0,95,0.00,,,0.00,weatherlink.com 1.10,2013-06-15 04:38:00,
2013-06-15 00:53:00,56.1,55.0,30.01,NW,318,0.0,0.0,96,0.00,,,0.00,weatherlink.com 1.10,2013-06-15 04:53:00,
2013-06-15 01:08:00,56.0,55.0,30.00,NW,318,0.0,0.0,96,0.00,,,0.00,weatherlink.com 1.10,2013-06-15 05:08:00,
2013-06-15 01:23:00,55.7,55.0,30.00,NW,318,0.0,0.0,96,0.00,,,0.00,weatherlink.com 1.10,2013-06-15 05:23:00,
2013-06-15 01:38:00,55.3,54.0,30.00,NW,318,0.0,0.0,96,0.00,,,0.00,weatherlink.com 1.10,2013-06-15 05:38:00,
2013-06-15 01:53:00,55.0,54.0,30.00,NW,318,0.0,0.0,96,0.00,,,0.00,weatherlink.com 1.10,2013-06-15 05:53:00,
2013-06-15 02:08:00,54.7,54.0,30.00,NW,318,0.0,0.0,96,0.00,,,0.00,weatherlink.com 1.10,2013-06-15 06:08:00,
2013-06-15 02:23:00,54.5,53.0,30.00,NW,318,0.0,0.0,96,0.00,,,0.00,weatherlink.com 1.10,2013-06-15 06:23:00,
2013-06-15 02:38:00,54.4,53.0,30.01,NW,318,0.0,0.0,96,0.00,,,0.00,weatherlink.com 1.10,2013-06-15 06:38:00,
2013-06-15 02:53:00,54.4,53.0,30.00,NW,318,0.0,0.0,96,0.00,,,0.00,weatherlink.com 1.10,2013-06-15 06:53:00,
2013-06-15 03:08:00,54.3,54.0,30.00,NW,318,0.0,0.0,97,0.00,,,0.00,weatherlink.com 1.10,2013-06-15 07:08:00,
2013-06-15 03:23:00,54.1,53.0,29.99,NW,318,0.0,0.0,96,0.00,,,0.00,weatherlink.com 1.10,2013-06-15 07:23:00,
2013-06-15 03:38:00,53.5,52.0,30.00,NW,318,0.0,0.0,96,0.00,,,0.00,weatherlink.com 1.10,2013-06-15 07:38:00,
2013-06-15 03:53:00,53.0,52.0,29.99,NW,318,0.0,0.0,96,0.00,,,0.00,weatherlink.com 1.10,2013-06-15 07:53:00,
2013-06-15 04:08:00,52.5,51.0,30.00,NW,318,0.0,0.0,96,0.00,,,0.00,weatherlink.com 1.10,2013-06-15 08:08:00,
2013-06-15 04:38:00,52.1,51.0,29.99,NW,318,0.0,0.0,96,0.00,,,0.00,weatherlink.com 1.10,2013-06-15 08:38:00,
2013-06-15 04:53:00,51.8,51.0,30.00,NW,318,0.0,0.0,97,0.00,,,0.00,weatherlink.com 1.10,2013-06-15 08:53:00,
2013-06-15 05:08:00,51.3,50.0,30.00,NW,318,0.0,0.0,96,0.00,,,0.00,weatherlink.com 1.10,2013-06-15 09:08:00,
2013-06-15 05:23:00,51.2,50.0,30.01,NW,318,0.0,0.0,97,0.00,,,0.00,weatherlink.com 1.10,2013-06-15 09:23:00,
2013-06-15 05:38:00,51.1,50.0,30.02,NW,318,0.0,0.0,97,0.00,,,0.00,weatherlink.com 1.10,2013-06-15 09:38:00,
2013-06-15 05:53:00,51.0,50.0,30.02,NW,318,0.0,0.0,97,0.00,,,0.00,weatherlink.com 1.10,2013-06-15 09:53:00,
2013-06-15 06:08:00,51.0,50.0,30.03,NW,318,0.0,0.0,97,0.00,,,0.00,weatherlink.com 1.10,2013-06-15 10:08:00,
2013-06-15 06:23:00,51.2,50.0,30.04,NW,318,0.0,0.0,97,0.00,,,0.00,weatherlink.com 1.10,2013-06-15 10:23:00,
2013-06-15 06:38:00,51.7,51.0,30.04,NW,318,0.0,0.0,97,0.00,,,0.00,weatherlink.com 1.10,2013-06-15 10:38:00,
2013-06-15 06:53:00,52.3,52.0,30.04,NW,318,0.0,0.0,97,0.00,,,0.00,weatherlink.com 1.10,2013-06-15 10:53:00,
2013-06-15 07:08:00,53.2,52.0,30.04,NW,318,0.0,0.0,97,0.00,,,0.00,weatherlink.com 1.10,2013-06-15 11:08:00,
2013-06-15 07:23:00,54.3,54.0,30.05,NW,318,0.0,0.0,97,0.00,,,0.00,weatherlink.com 1.10,2013-06-15 11:23:00,
2013-06-15 07:38:00,55.3,55.0,30.04,NW,318,0.0,0.0,98,0.00,,,0.00,weatherlink.com 1.10,2013-06-15 11:38:00,
2013-06-15 07:54:00,56.5,56.0,30.04,NW,320,0.0,3.0,98,0.00,,,0.00,weatherlink.com 1.10,2013-06-15 11:54:00,
2013-06-15 08:09:00,57.0,57.0,30.04,NNW,344,0.0,2.0,98,0.00,,,0.00,weatherlink.com 1.10,2013-06-15 12:09:00,
2013-06-15 08:24:00,57.5,57.0,30.04,NE,51,0.0,2.0,98,0.00,,,0.00,weatherlink.com 1.10,2013-06-15 12:24:00,
2013-06-15 08:39:00,58.2,56.0,30.05,South,173,0.0,5.0,93,0.00,,,0.00,weatherlink.com 1.10,2013-06-15 12:39:00,
2013-06-15 08:54:00,59.8,56.0,30.05,NW,316,0.0,5.0,86,0.00,,,0.00,weatherlink.com 1.10,2013-06-15 12:54:00,
2013-06-15 09:09:00,61.1,56.0,30.05,WNW,299,2.0,6.0,83,0.00,,,0.00,weatherlink.com 1.10,2013-06-15 13:09:00,
2013-06-15 09:24:00,61.9,57.0,30.05,NW,305,2.0,6.0,83,0.00,,,0.00,weatherlink.com 1.10,2013-06-15 13:24:00,
2013-06-15 09:39:00,62.6,57.0,30.06,WNW,302,2.0,6.0,83,0.00,,,0.00,weatherlink.com 1.10,2013-06-15 13:39:00,
2013-06-15 09:54:00,63.4,57.0,30.06,SSE,165,2.0,7.0,79,0.00,,,0.00,weatherlink.com 1.10,2013-06-15 13:54:00,
2013-06-15 10:09:00,64.0,56.0,30.06,NNW,330,2.0,5.0,75,0.00,,,0.00,weatherlink.com 1.10,2013-06-15 14:09:00,
2013-06-15 10:24:00,64.8,56.0,30.06,NW,308,0.0,7.0,74,0.00,,,0.00,weatherlink.com 1.10,2013-06-15 14:24:00,
2013-06-15 10:39:00,64.9,54.0,30.06,SE,130,1.0,9.0,68,0.00,,,0.00,weatherlink.com 1.10,2013-06-15 14:39:00,
2013-06-15 10:54:00,65.7,54.0,30.06,NW,321,1.0,8.0,66,0.00,,,0.00,weatherlink.com 1.10,2013-06-15 14:54:00,
2013-06-15 11:09:00,65.6,52.0,30.06,North,355,6.0,10.0,61,0.00,,,0.00,weatherlink.com 1.10,2013-06-15 15:09:00,
2013-06-15 11:24:00,66.3,53.0,30.06,WNW,302,5.0,8.0,63,0.00,,,0.00,weatherlink.com 1.10,2013-06-15 15:24:00,
2013-06-15 11:39:00,66.5,57.0,30.06,NW,326,2.0,9.0,71,0.00,,,0.00,weatherlink.com 1.10,2013-06-15 15:39:00,
2013-06-15 11:54:00,66.8,57.0,30.05,NW,325,3.0,11.0,72,0.00,,,0.00,weatherlink.com 1.10,2013-06-15 15:54:00,
2013-06-15 12:09:00,67.4,56.0,30.05,NW,324,7.0,9.0,68,0.00,,,0.00,weatherlink.com 1.10,2013-06-15 16:09:00,
2013-06-15 12:24:00,67.3,54.0,30.05,NNW,340,0.0,15.0,63,0.00,,,0.00,weatherlink.com 1.10,2013-06-15 16:24:00,
2013-06-15 12:39:00,66.9,53.0,30.05,South,171,0.0,11.0,61,0.00,,,0.00,weatherlink.com 1.10,2013-06-15 16:39:00,
2013-06-15 12:54:00,67.2,53.0,30.04,NNW,344,0.0,7.0,61,0.00,,,0.00,weatherlink.com 1.10,2013-06-15 16:54:00,
2013-06-15 13:09:00,67.9,54.0,30.04,WNW,286,0.0,10.0,61,0.00,,,0.00,weatherlink.com 1.10,2013-06-15 17:09:00,
2013-06-15 13:24:00,68.6,55.0,30.04,NNW,328,2.0,7.0,62,0.00,,,0.00,weatherlink.com 1.10,2013-06-15 17:24:00,
2013-06-15 13:39:00,68.3,51.0,30.03,West,281,2.0,10.0,55,0.00,,,0.00,weatherlink.com 1.10,2013-06-15 17:39:00,
2013-06-15 13:54:00,68.9,53.0,30.03,NNE,15,0.0,9.0,57,0.00,,,0.00,weatherlink.com 1.10,2013-06-15 17:54:00,
2013-06-15 14:09:00,68.7,51.0,30.03,North,349,5.0,10.0,53,0.00,,,0.00,weatherlink.com 1.10,2013-06-15 18:09:00,
2013-06-15 14:24:00,69.0,50.0,30.02,NW,315,6.0,10.0,51,0.00,,,0.00,weatherlink.com 1.10,2013-06-15 18:24:00,
2013-06-15 14:40:00,69.3,47.0,30.02,NE,40,1.0,8.0,45,0.00,,,0.00,weatherlink.com 1.10,2013-06-15 18:40:00,
2013-06-15 14:54:00,69.0,47.0,30.02,WSW,237,2.0,11.0,46,0.00,,,0.00,weatherlink.com 1.10,2013-06-15 18:54:00,
2013-06-15 15:09:00,69.0,47.0,30.02,NNW,340,0.0,7.0,45,0.00,,,0.00,weatherlink.com 1.10,2013-06-15 19:09:00,
2013-06-15 15:24:00,68.9,45.0,30.02,NNW,331,0.0,7.0,43,0.00,,,0.00,weatherlink.com 1.10,2013-06-15 19:24:00,
2013-06-15 15:39:00,69.4,48.0,30.02,NW,315,4.0,5.0,47,0.00,,,0.00,weatherlink.com 1.10,2013-06-15 19:39:00,
2013-06-15 15:54:00,68.4,47.0,30.01,WSW,238,0.0,8.0,47,0.00,,,0.00,weatherlink.com 1.10,2013-06-15 19:54:00,
2013-06-15 16:09:00,69.1,50.0,30.00,NW,313,0.0,4.0,51,0.00,,,0.00,weatherlink.com 1.10,2013-06-15 20:09:00,
2013-06-15 16:24:00,68.7,50.0,30.00,NNW,327,0.0,4.0,52,0.00,,,0.00,weatherlink.com 1.10,2013-06-15 20:24:00,
2013-06-15 16:39:00,68.8,50.0,30.00,NW,311,0.0,8.0,51,0.00,,,0.00,weatherlink.com 1.10,2013-06-15 20:39:00,
2013-06-15 16:54:00,69.2,54.0,29.99,NNW,332,0.0,7.0,58,0.00,,,0.00,weatherlink.com 1.10,2013-06-15 20:54:00,
2013-06-15 17:09:00,69.3,55.0,29.99,NNE,28,0.0,8.0,61,0.00,,,0.00,weatherlink.com 1.10,2013-06-15 21:09:00,
2013-06-15 17:24:00,69.2,53.0,29.99,NW,319,4.0,7.0,57,0.00,,,0.00,weatherlink.com 1.10,2013-06-15 21:24:00,
2013-06-15 17:40:00,69.4,56.0,29.99,West,263,0.0,8.0,62,0.00,,,0.00,weatherlink.com 1.10,2013-06-15 21:40:00,
2013-06-15 17:55:00,69.0,53.0,29.98,WSW,252,0.0,7.0,58,0.00,,,0.00,weatherlink.com 1.10,2013-06-15 21:55:00,
2013-06-15 18:10:00,68.8,54.0,29.98,NNW,344,2.0,8.0,60,0.00,,,0.00,weatherlink.com 1.10,2013-06-15 22:10:00,
2013-06-15 18:25:00,69.5,54.0,29.99,NE,45,2.0,9.0,58,0.00,,,0.00,weatherlink.com 1.10,2013-06-15 22:25:00,
2013-06-15 18:40:00,69.4,53.0,29.98,NW,315,6.0,7.0,56,0.00,,,0.00,weatherlink.com 1.10,2013-06-15 22:40:00,
2013-06-15 18:55:00,69.0,52.0,29.98,NNE,27,0.0,7.0,56,0.00,,,0.00,weatherlink.com 1.10,2013-06-15 22:55:00,
2013-06-15 19:10:00,68.1,52.0,29.98,NW,313,0.0,10.0,57,0.00,,,0.00,weatherlink.com 1.10,2013-06-15 23:10:00,
2013-06-15 19:26:00,67.1,53.0,29.97,NNW,331,1.0,9.0,61,0.00,,,0.00,weatherlink.com 1.10,2013-06-15 23:26:00,
2013-06-15 19:40:00,66.7,53.0,29.97,NNW,327,1.0,7.0,62,0.00,,,0.00,weatherlink.com 1.10,2013-06-15 23:40:00,
2013-06-15 19:55:00,66.4,54.0,29.97,NNE,24,0.0,3.0,64,0.00,,,0.00,weatherlink.com 1.10,2013-06-15 23:55:00,
2013-06-15 20:10:00,66.6,55.0,29.98,SW,223,0.0,1.0,66,0.00,,,0.00,weatherlink.com 1.10,2013-06-16 00:10:00,
2013-06-15 20:25:00,66.0,56.0,29.98,SSE,156,0.0,3.0,69,0.00,,,0.00,weatherlink.com 1.10,2013-06-16 00:25:00,
2013-06-15 20:40:00,65.3,55.0,29.97,NW,321,0.0,2.0,70,0.00,,,0.00,weatherlink.com 1.10,2013-06-16 00:40:00,
2013-06-15 20:55:00,64.6,55.0,29.97,NNW,340,0.0,4.0,72,0.00,,,0.00,weatherlink.com 1.10,2013-06-16 00:55:00,
2013-06-15 21:10:00,64.0,56.0,29.97,North,360,0.0,0.0,74,0.00,,,0.00,weatherlink.com 1.10,2013-06-16 01:10:00,
2013-06-15 21:25:00,62.3,55.0,29.97,North,360,0.0,0.0,78,0.00,,,0.00,weatherlink.com 1.10,2013-06-16 01:25:00,
2013-06-15 21:40:00,61.1,56.0,29.97,North,360,0.0,0.0,82,0.00,,,0.00,weatherlink.com 1.10,2013-06-16 01:40:00,
2013-06-15 21:55:00,60.3,56.0,29.97,North,360,0.0,0.0,84,0.00,,,0.00,weatherlink.com 1.10,2013-06-16 01:55:00,
2013-06-15 22:10:00,59.7,56.0,29.96,North,360,0.0,0.0,86,0.00,,,0.00,weatherlink.com 1.10,2013-06-16 02:10:00,
2013-06-15 22:25:00,59.4,55.0,29.96,North,360,0.0,0.0,86,0.00,,,0.00,weatherlink.com 1.10,2013-06-16 02:25:00,
2013-06-15 22:40:00,59.1,55.0,29.95,North,360,0.0,0.0,87,0.00,,,0.00,weatherlink.com 1.10,2013-06-16 02:40:00,
2013-06-15 22:55:00,58.7,55.0,29.95,North,360,0.0,0.0,88,0.00,,,0.00,weatherlink.com 1.10,2013-06-16 02:55:00,
2013-06-15 23:10:00,58.5,55.0,29.95,North,360,0.0,0.0,88,0.00,,,0.00,weatherlink.com 1.10,2013-06-16 03:10:00,
2013-06-15 23:25:00,58.4,55.0,29.95,North,360,0.0,0.0,89,0.00,,,0.00,weatherlink.com 1.10,2013-06-16 03:25:00,
2013-06-15 23:40:00,58.7,56.0,29.95,North,360,0.0,0.0,89,0.00,,,0.00,weatherlink.com 1.10,2013-06-16 03:40:00,
2013-06-15 23:55:00,59.0,56.0,29.95,WSW,243,0.0,0.0,88,0.00,,,0.00,weatherlink.com 1.10,2013-06-16 03:55:00,